sensor_id;sensor_type;location;lat;lon;timestamp;P1;durP1;ratioP1;P2;durP2;ratioP2
1993;SDS011;998;49.906;10.908;2023-02-03T00:01:02;12.00;;;2.93;;
1993;SDS011;998;49.906;10.908;2023-02-03T00:03:31;13.33;;;3.70;;
1993;SDS011;998;49.906;10.908;2023-02-03T00:05:59;11.73;;;2.87;;
1993;SDS011;998;49.906;10.908;2023-02-03T00:08:26;13.97;;;3.67;;
1993;SDS011;998;49.906;10.908;2023-02-03T00:10:54;13.30;;;3.90;;
1993;SDS011;998;49.906;10.908;2023-02-03T00:13:22;12.50;;;3.03;;
1993;SDS011;998;49.906;10.908;2023-02-03T00:15:50;11.27;;;2.83;;
1993;SDS011;998;49.906;10.908;2023-02-03T00:18:18;14.10;;;3.13;;
1993;SDS011;998;49.906;10.908;2023-02-03T00:20:47;13.90;;;3.60;;
1993;SDS011;998;49.906;10.908;2023-02-03T00:23:14;14.40;;;3.57;;
1993;SDS011;998;49.906;10.908;2023-02-03T00:25:41;17.50;;;3.33;;
1993;SDS011;998;49.906;10.908;2023-02-03T00:28:09;12.17;;;3.73;;
1993;SDS011;998;49.906;10.908;2023-02-03T00:30:36;16.43;;;3.30;;
1993;SDS011;998;49.906;10.908;2023-02-03T00:33:04;11.97;;;3.33;;
1993;SDS011;998;49.906;10.908;2023-02-03T00:35:31;14.60;;;4.43;;
1993;SDS011;998;49.906;10.908;2023-02-03T00:38:00;14.47;;;3.63;;
1993;SDS011;998;49.906;10.908;2023-02-03T00:40:27;15.90;;;4.10;;
1993;SDS011;998;49.906;10.908;2023-02-03T00:42:55;13.50;;;4.40;;
1993;SDS011;998;49.906;10.908;2023-02-03T00:45:22;13.83;;;4.57;;
1993;SDS011;998;49.906;10.908;2023-02-03T00:47:49;13.80;;;3.27;;
1993;SDS011;998;49.906;10.908;2023-02-03T00:50:17;15.33;;;4.90;;
1993;SDS011;998;49.906;10.908;2023-02-03T00:52:44;11.43;;;2.90;;
1993;SDS011;998;49.906;10.908;2023-02-03T00:55:12;12.40;;;3.40;;
1993;SDS011;998;49.906;10.908;2023-02-03T00:57:40;13.77;;;3.90;;
1993;SDS011;998;49.906;10.908;2023-02-03T01:00:08;11.63;;;3.10;;
1993;SDS011;998;49.906;10.908;2023-02-03T01:02:36;13.13;;;3.37;;
1993;SDS011;998;49.906;10.908;2023-02-03T01:05:04;15.90;;;3.90;;
1993;SDS011;998;49.906;10.908;2023-02-03T01:07:32;12.40;;;3.47;;
1993;SDS011;998;49.906;10.908;2023-02-03T01:09:59;17.20;;;4.20;;
1993;SDS011;998;49.906;10.908;2023-02-03T01:12:29;16.40;;;3.90;;
1993;SDS011;998;49.906;10.908;2023-02-03T01:14:57;14.27;;;3.90;;
1993;SDS011;998;49.906;10.908;2023-02-03T01:17:24;12.57;;;3.93;;
1993;SDS011;998;49.906;10.908;2023-02-03T01:19:52;13.93;;;3.70;;
1993;SDS011;998;49.906;10.908;2023-02-03T01:22:19;17.73;;;4.10;;
1993;SDS011;998;49.906;10.908;2023-02-03T01:24:47;15.50;;;3.20;;
1993;SDS011;998;49.906;10.908;2023-02-03T01:27:14;17.50;;;4.00;;
1993;SDS011;998;49.906;10.908;2023-02-03T01:29:43;19.97;;;4.20;;
1993;SDS011;998;49.906;10.908;2023-02-03T01:32:10;14.17;;;5.47;;
1993;SDS011;998;49.906;10.908;2023-02-03T01:34:38;14.33;;;5.10;;
1993;SDS011;998;49.906;10.908;2023-02-03T01:37:05;15.80;;;5.53;;
1993;SDS011;998;49.906;10.908;2023-02-03T01:39:33;15.33;;;4.90;;
1993;SDS011;998;49.906;10.908;2023-02-03T01:42:00;19.73;;;4.97;;
1993;SDS011;998;49.906;10.908;2023-02-03T01:44:33;13.60;;;3.57;;
1993;SDS011;998;49.906;10.908;2023-02-03T01:47:08;20.80;;;5.50;;
1993;SDS011;998;49.906;10.908;2023-02-03T01:49:48;14.80;;;4.07;;
1993;SDS011;998;49.906;10.908;2023-02-03T01:52:22;14.30;;;4.57;;
1993;SDS011;998;49.906;10.908;2023-02-03T01:54:51;15.20;;;4.53;;
1993;SDS011;998;49.906;10.908;2023-02-03T01:57:23;14.17;;;4.27;;
1993;SDS011;998;49.906;10.908;2023-02-03T01:59:55;16.00;;;4.73;;
1993;SDS011;998;49.906;10.908;2023-02-03T02:02:25;15.40;;;5.33;;
1993;SDS011;998;49.906;10.908;2023-02-03T02:04:54;12.40;;;3.67;;
1993;SDS011;998;49.906;10.908;2023-02-03T02:07:28;13.60;;;3.70;;
1993;SDS011;998;49.906;10.908;2023-02-03T02:09:57;16.03;;;4.43;;
1993;SDS011;998;49.906;10.908;2023-02-03T02:12:25;12.43;;;3.50;;
1993;SDS011;998;49.906;10.908;2023-02-03T02:14:53;14.90;;;4.13;;
1993;SDS011;998;49.906;10.908;2023-02-03T02:17:29;13.30;;;3.97;;
1993;SDS011;998;49.906;10.908;2023-02-03T02:23:19;15.67;;;4.17;;
1993;SDS011;998;49.906;10.908;2023-02-03T02:29:25;15.93;;;3.80;;
1993;SDS011;998;49.906;10.908;2023-02-03T02:32:15;14.50;;;3.93;;
1993;SDS011;998;49.906;10.908;2023-02-03T02:34:53;16.70;;;3.83;;
1993;SDS011;998;49.906;10.908;2023-02-03T02:37:33;13.50;;;3.33;;
1993;SDS011;998;49.906;10.908;2023-02-03T02:40:09;11.60;;;3.33;;
1993;SDS011;998;49.906;10.908;2023-02-03T02:42:48;14.03;;;3.40;;
1993;SDS011;998;49.906;10.908;2023-02-03T02:45:26;12.70;;;3.37;;
1993;SDS011;998;49.906;10.908;2023-02-03T02:47:58;17.97;;;4.17;;
1993;SDS011;998;49.906;10.908;2023-02-03T02:50:31;18.37;;;3.53;;
1993;SDS011;998;49.906;10.908;2023-02-03T02:53:02;13.03;;;3.47;;
1993;SDS011;998;49.906;10.908;2023-02-03T02:55:31;12.07;;;3.33;;
1993;SDS011;998;49.906;10.908;2023-02-03T02:58:04;16.47;;;4.73;;
1993;SDS011;998;49.906;10.908;2023-02-03T03:00:34;15.27;;;3.73;;
1993;SDS011;998;49.906;10.908;2023-02-03T03:05:50;14.83;;;3.43;;
1993;SDS011;998;49.906;10.908;2023-02-03T03:08:22;17.27;;;4.43;;
1993;SDS011;998;49.906;10.908;2023-02-03T03:10:54;13.10;;;3.10;;
1993;SDS011;998;49.906;10.908;2023-02-03T03:13:24;14.37;;;4.33;;
1993;SDS011;998;49.906;10.908;2023-02-03T03:15:57;16.20;;;4.03;;
1993;SDS011;998;49.906;10.908;2023-02-03T03:18:29;13.13;;;3.43;;
1993;SDS011;998;49.906;10.908;2023-02-03T03:21:00;13.37;;;4.00;;
1993;SDS011;998;49.906;10.908;2023-02-03T03:23:32;13.70;;;3.40;;
1993;SDS011;998;49.906;10.908;2023-02-03T03:26:15;17.37;;;4.67;;
1993;SDS011;998;49.906;10.908;2023-02-03T03:28:48;17.53;;;4.77;;
1993;SDS011;998;49.906;10.908;2023-02-03T03:31:18;19.13;;;4.60;;
1993;SDS011;998;49.906;10.908;2023-02-03T03:33:47;15.77;;;4.60;;
1993;SDS011;998;49.906;10.908;2023-02-03T03:36:18;15.30;;;4.13;;
1993;SDS011;998;49.906;10.908;2023-02-03T03:38:52;17.63;;;4.90;;
1993;SDS011;998;49.906;10.908;2023-02-03T03:41:24;14.10;;;4.00;;
1993;SDS011;998;49.906;10.908;2023-02-03T03:43:56;16.43;;;4.60;;
1993;SDS011;998;49.906;10.908;2023-02-03T03:46:29;12.60;;;3.50;;
1993;SDS011;998;49.906;10.908;2023-02-03T03:49:02;12.50;;;3.90;;
1993;SDS011;998;49.906;10.908;2023-02-03T03:51:33;12.80;;;3.53;;
1993;SDS011;998;49.906;10.908;2023-02-03T03:54:04;15.67;;;4.77;;
1993;SDS011;998;49.906;10.908;2023-02-03T03:56:35;22.30;;;3.70;;
1993;SDS011;998;49.906;10.908;2023-02-03T03:59:07;13.93;;;4.07;;
1993;SDS011;998;49.906;10.908;2023-02-03T04:01:37;13.77;;;3.63;;
1993;SDS011;998;49.906;10.908;2023-02-03T04:04:08;13.10;;;3.43;;
1993;SDS011;998;49.906;10.908;2023-02-03T04:06:37;13.03;;;3.80;;
1993;SDS011;998;49.906;10.908;2023-02-03T04:09:05;18.63;;;4.10;;
1993;SDS011;998;49.906;10.908;2023-02-03T04:11:33;12.10;;;4.00;;
1993;SDS011;998;49.906;10.908;2023-02-03T04:14:18;12.30;;;3.30;;
1993;SDS011;998;49.906;10.908;2023-02-03T04:16:45;17.20;;;4.40;;
1993;SDS011;998;49.906;10.908;2023-02-03T04:19:14;14.13;;;3.40;;
1993;SDS011;998;49.906;10.908;2023-02-03T04:21:41;15.10;;;3.53;;
1993;SDS011;998;49.906;10.908;2023-02-03T04:24:09;12.37;;;3.43;;
1993;SDS011;998;49.906;10.908;2023-02-03T04:26:37;10.67;;;3.00;;
1993;SDS011;998;49.906;10.908;2023-02-03T04:29:04;16.17;;;4.37;;
1993;SDS011;998;49.906;10.908;2023-02-03T04:31:32;12.63;;;3.67;;
1993;SDS011;998;49.906;10.908;2023-02-03T04:33:59;11.67;;;3.10;;
1993;SDS011;998;49.906;10.908;2023-02-03T04:36:28;15.90;;;3.83;;
1993;SDS011;998;49.906;10.908;2023-02-03T04:38:56;11.80;;;3.33;;
1993;SDS011;998;49.906;10.908;2023-02-03T04:41:23;12.10;;;3.50;;
1993;SDS011;998;49.906;10.908;2023-02-03T04:43:50;14.50;;;3.40;;
1993;SDS011;998;49.906;10.908;2023-02-03T04:46:18;11.53;;;3.00;;
1993;SDS011;998;49.906;10.908;2023-02-03T04:48:45;12.47;;;2.90;;
1993;SDS011;998;49.906;10.908;2023-02-03T04:51:12;13.63;;;3.30;;
1993;SDS011;998;49.906;10.908;2023-02-03T04:53:41;12.77;;;3.23;;
1993;SDS011;998;49.906;10.908;2023-02-03T04:56:09;13.03;;;3.50;;
1993;SDS011;998;49.906;10.908;2023-02-03T04:58:36;11.90;;;2.83;;
1993;SDS011;998;49.906;10.908;2023-02-03T05:01:07;12.53;;;2.60;;
1993;SDS011;998;49.906;10.908;2023-02-03T05:03:35;18.30;;;2.87;;
1993;SDS011;998;49.906;10.908;2023-02-03T05:06:03;12.93;;;3.73;;
1993;SDS011;998;49.906;10.908;2023-02-03T05:08:30;11.80;;;2.57;;
1993;SDS011;998;49.906;10.908;2023-02-03T05:10:59;11.70;;;3.00;;
1993;SDS011;998;49.906;10.908;2023-02-03T05:13:26;12.00;;;2.23;;
1993;SDS011;998;49.906;10.908;2023-02-03T05:15:54;14.87;;;2.93;;
1993;SDS011;998;49.906;10.908;2023-02-03T05:18:21;12.50;;;2.60;;
1993;SDS011;998;49.906;10.908;2023-02-03T05:20:49;11.00;;;2.27;;
1993;SDS011;998;49.906;10.908;2023-02-03T05:23:16;11.13;;;1.90;;
1993;SDS011;998;49.906;10.908;2023-02-03T05:25:43;10.50;;;1.90;;
1993;SDS011;998;49.906;10.908;2023-02-03T05:28:12;11.27;;;2.50;;
1993;SDS011;998;49.906;10.908;2023-02-03T05:30:39;10.10;;;1.87;;
1993;SDS011;998;49.906;10.908;2023-02-03T05:33:07;12.30;;;2.50;;
1993;SDS011;998;49.906;10.908;2023-02-03T05:35:34;11.07;;;1.80;;
1993;SDS011;998;49.906;10.908;2023-02-03T05:38:02;10.20;;;1.80;;
1993;SDS011;998;49.906;10.908;2023-02-03T05:40:29;13.47;;;2.03;;
1993;SDS011;998;49.906;10.908;2023-02-03T05:43:16;10.90;;;2.10;;
1993;SDS011;998;49.906;10.908;2023-02-03T05:45:43;10.57;;;1.87;;
1993;SDS011;998;49.906;10.908;2023-02-03T05:48:10;15.50;;;1.80;;
1993;SDS011;998;49.906;10.908;2023-02-03T05:50:38;13.67;;;2.13;;
1993;SDS011;998;49.906;10.908;2023-02-03T05:53:05;10.73;;;1.50;;
1993;SDS011;998;49.906;10.908;2023-02-03T05:55:33;11.50;;;2.07;;
1993;SDS011;998;49.906;10.908;2023-02-03T05:58:03;10.10;;;1.67;;
1993;SDS011;998;49.906;10.908;2023-02-03T06:00:32;9.90;;;1.63;;
1993;SDS011;998;49.906;10.908;2023-02-03T06:03:00;9.90;;;1.60;;
1993;SDS011;998;49.906;10.908;2023-02-03T06:05:28;10.30;;;1.70;;
1993;SDS011;998;49.906;10.908;2023-02-03T06:07:57;9.93;;;1.70;;
1993;SDS011;998;49.906;10.908;2023-02-03T06:10:25;10.40;;;1.60;;
1993;SDS011;998;49.906;10.908;2023-02-03T06:12:53;9.73;;;1.30;;
1993;SDS011;998;49.906;10.908;2023-02-03T06:15:20;10.30;;;1.73;;
1993;SDS011;998;49.906;10.908;2023-02-03T06:17:49;10.40;;;1.90;;
1993;SDS011;998;49.906;10.908;2023-02-03T06:20:17;9.47;;;1.00;;
1993;SDS011;998;49.906;10.908;2023-02-03T06:22:45;10.10;;;1.63;;
1993;SDS011;998;49.906;10.908;2023-02-03T06:25:13;12.00;;;1.97;;
1993;SDS011;998;49.906;10.908;2023-02-03T06:27:40;11.30;;;1.80;;
1993;SDS011;998;49.906;10.908;2023-02-03T06:30:08;12.20;;;1.97;;
1993;SDS011;998;49.906;10.908;2023-02-03T06:32:36;10.33;;;1.50;;
1993;SDS011;998;49.906;10.908;2023-02-03T06:35:05;10.00;;;1.60;;
1993;SDS011;998;49.906;10.908;2023-02-03T06:37:33;10.33;;;1.87;;
1993;SDS011;998;49.906;10.908;2023-02-03T06:40:02;12.73;;;2.10;;
1993;SDS011;998;49.906;10.908;2023-02-03T06:42:30;10.13;;;1.70;;
1993;SDS011;998;49.906;10.908;2023-02-03T06:44:57;10.13;;;1.80;;
1993;SDS011;998;49.906;10.908;2023-02-03T06:47:25;13.37;;;2.20;;
1993;SDS011;998;49.906;10.908;2023-02-03T06:49:52;10.30;;;1.77;;
1993;SDS011;998;49.906;10.908;2023-02-03T06:52:21;11.00;;;2.20;;
1993;SDS011;998;49.906;10.908;2023-02-03T06:54:48;10.27;;;1.77;;
1993;SDS011;998;49.906;10.908;2023-02-03T06:57:16;11.37;;;1.97;;
1993;SDS011;998;49.906;10.908;2023-02-03T06:59:43;10.00;;;2.00;;
1993;SDS011;998;49.906;10.908;2023-02-03T07:02:11;9.43;;;1.10;;
1993;SDS011;998;49.906;10.908;2023-02-03T07:04:38;9.83;;;1.67;;
1993;SDS011;998;49.906;10.908;2023-02-03T07:07:05;10.43;;;1.90;;
1993;SDS011;998;49.906;10.908;2023-02-03T07:09:34;11.00;;;1.97;;
1993;SDS011;998;49.906;10.908;2023-02-03T07:12:02;18.20;;;1.90;;
1993;SDS011;998;49.906;10.908;2023-02-03T07:14:29;11.80;;;1.67;;
1993;SDS011;998;49.906;10.908;2023-02-03T07:16:58;14.00;;;2.07;;
1993;SDS011;998;49.906;10.908;2023-02-03T07:19:25;12.80;;;1.73;;
1993;SDS011;998;49.906;10.908;2023-02-03T07:21:53;12.90;;;2.40;;
1993;SDS011;998;49.906;10.908;2023-02-03T07:24:20;23.80;;;2.20;;
1993;SDS011;998;49.906;10.908;2023-02-03T07:26:49;10.20;;;1.60;;
1993;SDS011;998;49.906;10.908;2023-02-03T07:29:16;12.70;;;2.13;;
1993;SDS011;998;49.906;10.908;2023-02-03T07:31:44;10.77;;;1.80;;
1993;SDS011;998;49.906;10.908;2023-02-03T07:34:11;10.13;;;1.77;;
1993;SDS011;998;49.906;10.908;2023-02-03T07:36:38;10.60;;;1.77;;
1993;SDS011;998;49.906;10.908;2023-02-03T07:39:06;12.00;;;1.70;;
1993;SDS011;998;49.906;10.908;2023-02-03T07:41:34;11.00;;;1.80;;
1993;SDS011;998;49.906;10.908;2023-02-03T07:44:03;10.90;;;2.43;;
1993;SDS011;998;49.906;10.908;2023-02-03T07:46:31;9.90;;;1.67;;
1993;SDS011;998;49.906;10.908;2023-02-03T07:48:58;11.20;;;2.00;;
1993;SDS011;998;49.906;10.908;2023-02-03T07:51:28;12.83;;;2.63;;
1993;SDS011;998;49.906;10.908;2023-02-03T07:53:55;10.47;;;2.07;;
1993;SDS011;998;49.906;10.908;2023-02-03T07:56:23;10.97;;;2.70;;
1993;SDS011;998;49.906;10.908;2023-02-03T07:58:51;10.83;;;2.53;;
1993;SDS011;998;49.906;10.908;2023-02-03T08:01:20;10.47;;;2.00;;
1993;SDS011;998;49.906;10.908;2023-02-03T08:03:47;10.37;;;1.90;;
1993;SDS011;998;49.906;10.908;2023-02-03T08:06:14;11.13;;;2.20;;
1993;SDS011;998;49.906;10.908;2023-02-03T08:08:42;10.80;;;2.70;;
1993;SDS011;998;49.906;10.908;2023-02-03T08:11:09;11.27;;;2.47;;
1993;SDS011;998;49.906;10.908;2023-02-03T08:13:36;10.10;;;1.90;;
1993;SDS011;998;49.906;10.908;2023-02-03T08:16:04;12.97;;;2.00;;
1993;SDS011;998;49.906;10.908;2023-02-03T08:18:34;11.20;;;2.40;;
1993;SDS011;998;49.906;10.908;2023-02-03T08:21:01;10.60;;;2.13;;
1993;SDS011;998;49.906;10.908;2023-02-03T08:23:29;10.27;;;1.90;;
1993;SDS011;998;49.906;10.908;2023-02-03T08:25:56;10.60;;;2.30;;
1993;SDS011;998;49.906;10.908;2023-02-03T08:28:24;10.40;;;2.10;;
1993;SDS011;998;49.906;10.908;2023-02-03T08:30:51;13.13;;;2.10;;
1993;SDS011;998;49.906;10.908;2023-02-03T08:33:20;10.20;;;1.83;;
1993;SDS011;998;49.906;10.908;2023-02-03T08:35:49;11.80;;;2.10;;
1993;SDS011;998;49.906;10.908;2023-02-03T08:38:17;10.13;;;1.90;;
1993;SDS011;998;49.906;10.908;2023-02-03T08:40:46;11.13;;;2.00;;
1993;SDS011;998;49.906;10.908;2023-02-03T08:43:13;11.97;;;2.53;;
1993;SDS011;998;49.906;10.908;2023-02-03T08:45:40;12.30;;;2.37;;
1993;SDS011;998;49.906;10.908;2023-02-03T08:48:08;10.60;;;2.10;;
1993;SDS011;998;49.906;10.908;2023-02-03T08:50:36;11.40;;;2.47;;
1993;SDS011;998;49.906;10.908;2023-02-03T08:53:05;11.30;;;2.03;;
1993;SDS011;998;49.906;10.908;2023-02-03T08:55:32;13.33;;;2.27;;
1993;SDS011;998;49.906;10.908;2023-02-03T08:57:59;10.27;;;2.10;;
1993;SDS011;998;49.906;10.908;2023-02-03T09:00:27;10.80;;;2.23;;
1993;SDS011;998;49.906;10.908;2023-02-03T09:02:54;10.00;;;1.67;;
1993;SDS011;998;49.906;10.908;2023-02-03T09:05:21;10.70;;;2.47;;
1993;SDS011;998;49.906;10.908;2023-02-03T09:07:49;13.33;;;1.53;;
1993;SDS011;998;49.906;10.908;2023-02-03T09:10:17;10.60;;;2.20;;
1993;SDS011;998;49.906;10.908;2023-02-03T09:12:44;10.60;;;2.47;;
1993;SDS011;998;49.906;10.908;2023-02-03T09:15:12;11.43;;;2.37;;
1993;SDS011;998;49.906;10.908;2023-02-03T09:17:40;13.03;;;2.50;;
1993;SDS011;998;49.906;10.908;2023-02-03T09:20:07;10.47;;;1.70;;
1993;SDS011;998;49.906;10.908;2023-02-03T09:22:37;13.30;;;2.67;;
1993;SDS011;998;49.906;10.908;2023-02-03T09:25:05;10.27;;;2.23;;
1993;SDS011;998;49.906;10.908;2023-02-03T09:27:34;12.27;;;2.53;;
1993;SDS011;998;49.906;10.908;2023-02-03T09:30:01;12.17;;;2.97;;
1993;SDS011;998;49.906;10.908;2023-02-03T09:32:29;9.80;;;1.80;;
1993;SDS011;998;49.906;10.908;2023-02-03T09:34:58;12.20;;;2.33;;
1993;SDS011;998;49.906;10.908;2023-02-03T09:37:25;10.27;;;2.30;;
1993;SDS011;998;49.906;10.908;2023-02-03T09:39:55;12.00;;;2.93;;
1993;SDS011;998;49.906;10.908;2023-02-03T09:45:17;10.20;;;2.07;;
1993;SDS011;998;49.906;10.908;2023-02-03T09:47:48;11.67;;;2.07;;
1993;SDS011;998;49.906;10.908;2023-02-03T09:50:19;10.60;;;2.20;;
1993;SDS011;998;49.906;10.908;2023-02-03T09:52:49;9.30;;;1.70;;
1993;SDS011;998;49.906;10.908;2023-02-03T09:55:25;10.70;;;2.50;;
1993;SDS011;998;49.906;10.908;2023-02-03T09:58:00;12.93;;;1.97;;
1993;SDS011;998;49.906;10.908;2023-02-03T10:00:31;13.20;;;2.40;;
1993;SDS011;998;49.906;10.908;2023-02-03T10:03:03;12.87;;;2.33;;
1993;SDS011;998;49.906;10.908;2023-02-03T10:05:47;11.10;;;2.20;;
1993;SDS011;998;49.906;10.908;2023-02-03T10:08:23;13.87;;;2.90;;
1993;SDS011;998;49.906;10.908;2023-02-03T10:10:59;11.80;;;2.00;;
1993;SDS011;998;49.906;10.908;2023-02-03T10:13:41;9.67;;;1.73;;
1993;SDS011;998;49.906;10.908;2023-02-03T10:16:20;10.57;;;1.90;;
1993;SDS011;998;49.906;10.908;2023-02-03T10:19:00;12.73;;;2.40;;
1993;SDS011;998;49.906;10.908;2023-02-03T10:21:35;9.80;;;2.10;;
1993;SDS011;998;49.906;10.908;2023-02-03T10:24:08;10.50;;;2.27;;
1993;SDS011;998;49.906;10.908;2023-02-03T10:26:38;11.17;;;2.07;;
1993;SDS011;998;49.906;10.908;2023-02-03T10:29:12;11.63;;;2.17;;
1993;SDS011;998;49.906;10.908;2023-02-03T10:31:45;10.73;;;1.87;;
1993;SDS011;998;49.906;10.908;2023-02-03T10:34:13;9.40;;;1.83;;
1993;SDS011;998;49.906;10.908;2023-02-03T10:36:45;12.77;;;2.50;;
1993;SDS011;998;49.906;10.908;2023-02-03T10:39:21;10.03;;;2.20;;
1993;SDS011;998;49.906;10.908;2023-02-03T10:41:54;10.10;;;2.30;;
1993;SDS011;998;49.906;10.908;2023-02-03T10:44:24;12.60;;;2.20;;
1993;SDS011;998;49.906;10.908;2023-02-03T10:46:59;9.93;;;1.43;;
1993;SDS011;998;49.906;10.908;2023-02-03T10:49:26;11.70;;;2.30;;
1993;SDS011;998;49.906;10.908;2023-02-03T10:51:56;11.13;;;1.80;;
1993;SDS011;998;49.906;10.908;2023-02-03T10:54:29;12.03;;;2.20;;
1993;SDS011;998;49.906;10.908;2023-02-03T10:57:01;12.13;;;2.67;;
1993;SDS011;998;49.906;10.908;2023-02-03T10:59:32;10.93;;;2.20;;
1993;SDS011;998;49.906;10.908;2023-02-03T11:02:06;12.30;;;2.47;;
1993;SDS011;998;49.906;10.908;2023-02-03T11:04:35;9.80;;;1.80;;
1993;SDS011;998;49.906;10.908;2023-02-03T11:07:03;10.57;;;1.90;;
1993;SDS011;998;49.906;10.908;2023-02-03T11:09:33;9.90;;;2.10;;
1993;SDS011;998;49.906;10.908;2023-02-03T11:12:06;9.57;;;2.07;;
1993;SDS011;998;49.906;10.908;2023-02-03T11:14:39;9.93;;;1.70;;
1993;SDS011;998;49.906;10.908;2023-02-03T11:17:11;11.20;;;2.20;;
1993;SDS011;998;49.906;10.908;2023-02-03T11:19:43;9.93;;;1.90;;
1993;SDS011;998;49.906;10.908;2023-02-03T11:22:12;8.90;;;1.20;;
1993;SDS011;998;49.906;10.908;2023-02-03T11:24:52;9.40;;;1.60;;
1993;SDS011;998;49.906;10.908;2023-02-03T11:27:20;12.90;;;1.90;;
1993;SDS011;998;49.906;10.908;2023-02-03T11:29:51;11.20;;;2.10;;
1993;SDS011;998;49.906;10.908;2023-02-03T11:32:32;9.40;;;1.70;;
1993;SDS011;998;49.906;10.908;2023-02-03T11:35:02;10.63;;;2.17;;
1993;SDS011;998;49.906;10.908;2023-02-03T11:37:39;11.43;;;2.23;;
1993;SDS011;998;49.906;10.908;2023-02-03T11:40:21;12.00;;;1.70;;
1993;SDS011;998;49.906;10.908;2023-02-03T11:43:04;11.47;;;2.03;;
1993;SDS011;998;49.906;10.908;2023-02-03T11:45:42;9.27;;;1.50;;
1993;SDS011;998;49.906;10.908;2023-02-03T11:48:17;13.10;;;2.10;;
1993;SDS011;998;49.906;10.908;2023-02-03T11:50:52;8.93;;;1.30;;
1993;SDS011;998;49.906;10.908;2023-02-03T11:53:29;9.63;;;1.30;;
1993;SDS011;998;49.906;10.908;2023-02-03T11:56:11;9.80;;;1.90;;
1993;SDS011;998;49.906;10.908;2023-02-03T11:58:53;13.70;;;3.07;;
1993;SDS011;998;49.906;10.908;2023-02-03T12:05:14;13.80;;;2.17;;
1993;SDS011;998;49.906;10.908;2023-02-03T12:08:07;11.77;;;1.93;;
1993;SDS011;998;49.906;10.908;2023-02-03T12:10:46;9.00;;;1.30;;
1993;SDS011;998;49.906;10.908;2023-02-03T12:13:33;11.40;;;1.87;;
1993;SDS011;998;49.906;10.908;2023-02-03T12:16:28;12.43;;;1.60;;
1993;SDS011;998;49.906;10.908;2023-02-03T12:19:11;12.30;;;2.10;;
1993;SDS011;998;49.906;10.908;2023-02-03T12:21:46;9.23;;;1.37;;
1993;SDS011;998;49.906;10.908;2023-02-03T12:24:25;11.37;;;1.80;;
1993;SDS011;998;49.906;10.908;2023-02-03T12:27:05;10.87;;;2.57;;
1993;SDS011;998;49.906;10.908;2023-02-03T12:29:44;10.90;;;1.40;;
1993;SDS011;998;49.906;10.908;2023-02-03T12:32:18;11.03;;;1.30;;
1993;SDS011;998;49.906;10.908;2023-02-03T12:34:55;10.27;;;1.70;;
1993;SDS011;998;49.906;10.908;2023-02-03T12:37:33;11.30;;;1.53;;
1993;SDS011;998;49.906;10.908;2023-02-03T12:40:11;9.80;;;1.50;;
1993;SDS011;998;49.906;10.908;2023-02-03T12:42:42;10.20;;;1.90;;
1993;SDS011;998;49.906;10.908;2023-02-03T12:45:13;9.63;;;1.50;;
1993;SDS011;998;49.906;10.908;2023-02-03T12:47:44;10.00;;;1.60;;
1993;SDS011;998;49.906;10.908;2023-02-03T12:50:18;12.67;;;2.00;;
1993;SDS011;998;49.906;10.908;2023-02-03T12:52:51;12.10;;;1.77;;
1993;SDS011;998;49.906;10.908;2023-02-03T12:55:24;11.73;;;2.13;;
1993;SDS011;998;49.906;10.908;2023-02-03T12:57:57;14.00;;;1.97;;
1993;SDS011;998;49.906;10.908;2023-02-03T13:00:29;9.90;;;1.50;;
1993;SDS011;998;49.906;10.908;2023-02-03T13:03:12;9.40;;;1.60;;
1993;SDS011;998;49.906;10.908;2023-02-03T13:05:46;9.13;;;1.30;;
1993;SDS011;998;49.906;10.908;2023-02-03T13:08:25;11.40;;;1.80;;
1993;SDS011;998;49.906;10.908;2023-02-03T13:10:58;10.10;;;1.50;;
1993;SDS011;998;49.906;10.908;2023-02-03T13:13:36;10.77;;;1.43;;
1993;SDS011;998;49.906;10.908;2023-02-03T13:16:08;11.67;;;1.80;;
1993;SDS011;998;49.906;10.908;2023-02-03T13:18:40;9.30;;;1.30;;
1993;SDS011;998;49.906;10.908;2023-02-03T13:21:12;9.60;;;1.30;;
1993;SDS011;998;49.906;10.908;2023-02-03T13:23:41;11.80;;;1.50;;
1993;SDS011;998;49.906;10.908;2023-02-03T13:26:16;8.93;;;1.23;;
1993;SDS011;998;49.906;10.908;2023-02-03T13:29:06;9.47;;;1.40;;
1993;SDS011;998;49.906;10.908;2023-02-03T13:31:47;11.20;;;1.63;;
1993;SDS011;998;49.906;10.908;2023-02-03T13:34:36;11.00;;;1.50;;
1993;SDS011;998;49.906;10.908;2023-02-03T13:37:22;9.20;;;1.50;;
1993;SDS011;998;49.906;10.908;2023-02-03T13:40:16;9.50;;;1.50;;
1993;SDS011;998;49.906;10.908;2023-02-03T13:42:56;10.83;;;1.50;;
1993;SDS011;998;49.906;10.908;2023-02-03T13:45:27;9.43;;;1.20;;
1993;SDS011;998;49.906;10.908;2023-02-03T13:47:59;9.30;;;1.20;;
1993;SDS011;998;49.906;10.908;2023-02-03T13:50:35;9.30;;;1.30;;
1993;SDS011;998;49.906;10.908;2023-02-03T13:53:05;8.80;;;1.13;;
1993;SDS011;998;49.906;10.908;2023-02-03T13:55:41;9.30;;;1.40;;
1993;SDS011;998;49.906;10.908;2023-02-03T13:58:18;9.53;;;1.17;;
1993;SDS011;998;49.906;10.908;2023-02-03T14:01:01;11.97;;;1.30;;
1993;SDS011;998;49.906;10.908;2023-02-03T14:03:44;13.53;;;1.97;;
1993;SDS011;998;49.906;10.908;2023-02-03T14:12:55;11.50;;;1.73;;
1993;SDS011;998;49.906;10.908;2023-02-03T14:15:33;9.47;;;1.13;;
1993;SDS011;998;49.906;10.908;2023-02-03T14:23:50;8.80;;;1.20;;
1993;SDS011;998;49.906;10.908;2023-02-03T14:26:24;8.70;;;1.00;;
1993;SDS011;998;49.906;10.908;2023-02-03T14:29:01;9.40;;;1.40;;
1993;SDS011;998;49.906;10.908;2023-02-03T14:31:29;8.93;;;1.17;;
1993;SDS011;998;49.906;10.908;2023-02-03T14:34:04;10.00;;;1.20;;
1993;SDS011;998;49.906;10.908;2023-02-03T14:36:46;9.70;;;1.50;;
1993;SDS011;998;49.906;10.908;2023-02-03T14:46:11;8.77;;;1.20;;
1993;SDS011;998;49.906;10.908;2023-02-03T14:48:49;9.10;;;1.20;;
1993;SDS011;998;49.906;10.908;2023-02-03T14:51:33;8.77;;;1.10;;
1993;SDS011;998;49.906;10.908;2023-02-03T14:54:19;8.70;;;1.13;;
1993;SDS011;998;49.906;10.908;2023-02-03T14:57:17;8.57;;;1.00;;
1993;SDS011;998;49.906;10.908;2023-02-03T14:59:54;8.83;;;1.03;;
1993;SDS011;998;49.906;10.908;2023-02-03T15:02:28;8.50;;;1.00;;
1993;SDS011;998;49.906;10.908;2023-02-03T15:07:56;8.53;;;1.00;;
1993;SDS011;998;49.906;10.908;2023-02-03T15:10:28;9.30;;;1.20;;
1993;SDS011;998;49.906;10.908;2023-02-03T15:15:49;9.20;;;1.40;;
1993;SDS011;998;49.906;10.908;2023-02-03T15:18:27;9.13;;;1.10;;
1993;SDS011;998;49.906;10.908;2023-02-03T15:20:55;8.93;;;1.10;;
1993;SDS011;998;49.906;10.908;2023-02-03T15:23:24;8.80;;;0.90;;
1993;SDS011;998;49.906;10.908;2023-02-03T15:25:53;10.30;;;1.10;;
1993;SDS011;998;49.906;10.908;2023-02-03T15:28:23;9.30;;;1.20;;
1993;SDS011;998;49.906;10.908;2023-02-03T15:30:53;10.40;;;1.30;;
1993;SDS011;998;49.906;10.908;2023-02-03T15:33:25;8.83;;;1.10;;
1993;SDS011;998;49.906;10.908;2023-02-03T15:35:58;9.23;;;1.13;;
1993;SDS011;998;49.906;10.908;2023-02-03T15:38:32;10.00;;;1.60;;
1993;SDS011;998;49.906;10.908;2023-02-03T15:41:02;9.50;;;1.20;;
1993;SDS011;998;49.906;10.908;2023-02-03T15:43:34;9.47;;;1.03;;
1993;SDS011;998;49.906;10.908;2023-02-03T15:46:04;9.37;;;1.10;;
1993;SDS011;998;49.906;10.908;2023-02-03T15:48:39;9.23;;;1.20;;
1993;SDS011;998;49.906;10.908;2023-02-03T15:51:12;9.63;;;1.20;;
1993;SDS011;998;49.906;10.908;2023-02-03T15:53:45;9.00;;;1.17;;
1993;SDS011;998;49.906;10.908;2023-02-03T15:56:19;9.10;;;1.50;;
1993;SDS011;998;49.906;10.908;2023-02-03T15:58:50;9.03;;;1.17;;
1993;SDS011;998;49.906;10.908;2023-02-03T16:01:20;9.13;;;1.10;;
1993;SDS011;998;49.906;10.908;2023-02-03T16:03:53;9.20;;;1.13;;
1993;SDS011;998;49.906;10.908;2023-02-03T16:06:23;8.93;;;0.93;;
1993;SDS011;998;49.906;10.908;2023-02-03T16:08:54;9.67;;;1.37;;
1993;SDS011;998;49.906;10.908;2023-02-03T16:11:30;9.17;;;1.17;;